createdAt,value
2018-12-06T05:50:28.199Z,3.51
2018-12-06T05:53:16.173Z,3.48
2018-12-06T05:56:03.467Z,3.50
2018-12-06T05:58:50.713Z,3.54
2018-12-06T06:01:40.928Z,3.58
2018-12-06T06:04:27.858Z,3.63
2018-12-06T06:07:14.871Z,3.68
2018-12-06T06:10:02.854Z,3.73
2018-12-06T06:12:50.474Z,4.46
2018-12-06T06:15:37.874Z,4.73
2018-12-06T06:18:24.910Z,4.19
2018-12-06T06:21:11.907Z,4.11
2018-12-06T06:23:58.832Z,4.10
2018-12-06T06:26:46.009Z,4.10
2018-12-06T06:29:33.437Z,4.11
2018-12-06T06:32:21.732Z,4.82
2018-12-06T06:35:08.554Z,4.36
2018-12-06T06:37:55.635Z,4.29
2018-12-06T06:40:43.116Z,4.28
2018-12-06T06:43:30.305Z,4.29
2018-12-06T06:46:17.558Z,4.33
2018-12-06T06:49:05.134Z,4.39
2018-12-06T06:51:52.033Z,4.44
2018-12-06T06:54:39.150Z,4.49
2018-12-06T07:00:32.874Z,4.59
2018-12-06T07:03:19.741Z,4.66
2018-12-06T07:06:06.956Z,4.71
2018-12-06T07:08:54.325Z,4.75
2018-12-06T07:11:41.175Z,5.46
2018-12-06T07:17:35.829Z,5.00
2018-12-06T07:20:22.951Z,5.01
2018-12-06T07:23:11.195Z,5.02
2018-12-06T07:25:58.529Z,5.03
2018-12-06T07:29:01.312Z,5.05
2018-12-06T07:31:48.119Z,5.06
2018-12-06T07:34:36.995Z,5.07
2018-12-06T07:37:45.815Z,5.06
2018-12-06T07:43:49.524Z,5.07
2018-12-06T07:46:39.585Z,5.11
2018-12-06T07:49:27.021Z,5.14
2018-12-06T07:52:14.195Z,5.20
2018-12-06T07:55:01.854Z,5.26
2018-12-06T07:57:48.771Z,6.06
2018-12-06T08:00:35.865Z,6.39
2018-12-06T08:03:22.711Z,5.90
2018-12-06T08:06:09.663Z,5.82
2018-12-06T08:08:58.450Z,6.57
2018-12-06T08:11:45.154Z,6.05
2018-12-06T08:14:32.240Z,5.99
2018-12-06T08:17:19.166Z,5.96
2018-12-06T08:20:06.431Z,5.95
2018-12-06T08:22:53.635Z,6.73
2018-12-06T08:25:42.778Z,6.23
2018-12-06T08:28:28.402Z,6.15
2018-12-06T08:31:15.956Z,6.11
2018-12-06T08:34:06.421Z,6.10
2018-12-06T08:36:51.449Z,6.89
2018-12-06T08:39:40.881Z,6.41
2018-12-06T08:42:28.425Z,6.35
2018-12-06T08:45:24.122Z,6.34
2018-12-06T08:48:13.789Z,6.37
2018-12-06T08:51:04.637Z,7.23
2018-12-06T08:53:51.810Z,6.75
2018-12-06T08:56:43.346Z,6.70
2018-12-06T08:59:30.230Z,6.70
2018-12-06T09:05:23.351Z,6.90
2018-12-06T09:08:10.288Z,7.09
2018-12-06T09:10:57.166Z,7.30
2018-12-06T09:13:46.895Z,7.55
2018-12-06T09:16:35.682Z,8.59
2018-12-06T09:19:23.067Z,8.88
2018-12-06T09:22:09.922Z,8.32
2018-12-06T09:24:57.026Z,9.29
2018-12-06T09:27:43.755Z,8.77
2018-12-06T09:30:30.699Z,9.58
2018-12-06T09:33:17.509Z,8.94
2018-12-06T09:36:05.164Z,8.73
2018-12-06T09:38:51.956Z,8.60
2018-12-06T09:41:40.336Z,8.51
2018-12-06T09:44:27.643Z,8.40
2018-12-06T09:47:14.641Z,8.35
2018-12-06T09:50:01.771Z,8.28
2018-12-06T09:52:48.883Z,8.27
2018-12-06T09:55:36.519Z,8.27
2018-12-06T09:58:23.699Z,8.24
2018-12-06T10:01:10.862Z,8.23
2018-12-06T10:03:58.107Z,8.23
2018-12-06T10:06:45.528Z,8.28
2018-12-06T10:09:32.603Z,8.31
2018-12-06T10:12:19.824Z,8.39
2018-12-06T10:15:07.046Z,8.45
2018-12-06T10:17:57.491Z,8.56
2018-12-06T10:20:55.491Z,8.63
2018-12-06T10:23:42.567Z,8.72
2018-12-06T10:26:29.720Z,8.77
2018-12-06T10:29:16.735Z,8.77
2018-12-06T10:32:04.091Z,8.81
2018-12-06T10:34:53.520Z,8.81
2018-12-06T10:37:38.679Z,8.81
2018-12-06T10:40:25.775Z,8.81
2018-12-06T10:43:12.885Z,8.79
2018-12-06T10:45:59.878Z,8.81
2018-12-06T10:48:49.546Z,8.82
2018-12-06T10:51:40.167Z,8.85
2018-12-06T10:54:27.390Z,8.88
2018-12-06T10:57:14.200Z,8.87
2018-12-06T11:00:01.346Z,8.89
2018-12-06T11:02:48.563Z,8.88
2018-12-06T11:05:35.766Z,8.88
2018-12-06T11:08:23.130Z,8.89
2018-12-06T11:11:13.140Z,8.89
2018-12-06T11:14:00.255Z,8.90
2018-12-06T11:16:47.369Z,8.90
2018-12-06T11:19:34.756Z,9.77
2018-12-06T11:22:21.935Z,9.26
2018-12-06T11:25:08.878Z,9.24
2018-12-06T11:27:56.566Z,10.11
2018-12-06T11:30:43.360Z,9.57
2018-12-06T11:33:30.672Z,10.39
2018-12-06T11:36:18.138Z,10.60
2018-12-06T11:39:04.947Z,10.73
2018-12-06T11:41:52.121Z,10.08
2018-12-06T11:44:39.376Z,10.90
2018-12-06T11:47:26.783Z,10.26
2018-12-06T11:50:13.631Z,10.17
2018-12-06T11:53:00.635Z,10.18
2018-12-06T11:55:48.107Z,10.20
2018-12-06T11:58:35.168Z,10.18
2018-12-06T12:01:23.004Z,11.11
2018-12-06T12:04:10.227Z,10.48
2018-12-06T12:07:05.065Z,11.27
2018-12-06T12:09:57.072Z,11.56
2018-12-06T12:12:43.847Z,10.81
2018-12-06T12:15:31.282Z,10.69
2018-12-06T12:18:18.670Z,10.62
2018-12-06T12:21:05.812Z,10.50
2018-12-06T12:23:53.190Z,10.32
2018-12-06T12:26:40.198Z,10.18
2018-12-06T12:29:27.359Z,10.05
2018-12-06T12:32:14.273Z,10.01
2018-12-06T12:35:01.746Z,9.95
2018-12-06T12:37:48.933Z,9.92
2018-12-06T12:40:36.327Z,9.88
2018-12-06T12:43:23.355Z,9.87
2018-12-06T12:46:10.573Z,9.88
2018-12-06T12:49:05.044Z,9.87
2018-12-06T12:51:58.707Z,9.87
2018-12-06T12:54:45.579Z,9.84
2018-12-06T12:57:32.323Z,9.89
2018-12-06T13:00:20.611Z,9.92
2018-12-06T13:03:07.997Z,9.95
2018-12-06T13:05:54.871Z,10.80
2018-12-06T13:08:41.665Z,10.26
2018-12-06T13:11:28.626Z,10.96
2018-12-06T13:14:15.758Z,10.34
2018-12-06T13:17:02.746Z,10.21
2018-12-06T13:19:50.547Z,10.15
2018-12-06T13:22:42.991Z,10.17
2018-12-06T13:25:32.041Z,10.16
2018-12-06T13:28:18.652Z,10.13
2018-12-06T13:31:07.815Z,10.12
2018-12-06T13:33:56.887Z,10.13
2018-12-06T13:36:43.926Z,10.10
2018-12-06T13:39:30.941Z,10.10
2018-12-06T13:42:23.543Z,10.08
2018-12-06T13:45:06.340Z,10.89
2018-12-06T13:47:56.400Z,10.24
2018-12-06T13:50:43.445Z,10.11
2018-12-06T13:53:30.384Z,10.01
2018-12-06T13:56:17.447Z,9.98
2018-12-06T13:59:05.987Z,9.97
2018-12-06T14:01:52.788Z,9.93
2018-12-06T14:07:46.667Z,9.88
2018-12-06T14:10:33.420Z,9.87
2018-12-06T14:13:23.681Z,9.85
2018-12-06T14:22:20.373Z,10.61
2018-12-06T14:25:07.428Z,10.82
2018-12-06T14:27:54.179Z,10.98
2018-12-06T14:30:42.847Z,11.04
2018-12-06T14:33:30.837Z,10.36
2018-12-06T14:36:22.446Z,10.19
2018-12-06T14:39:09.248Z,10.89
2018-12-06T14:41:56.427Z,10.27
2018-12-06T14:44:43.800Z,10.13
2018-12-06T14:47:32.649Z,10.77
2018-12-06T14:50:19.590Z,10.15
2018-12-06T14:53:07.030Z,9.97
2018-12-06T14:55:54.255Z,9.83
2018-12-06T14:58:40.892Z,9.82
2018-12-06T15:01:28.024Z,9.77
2018-12-06T15:04:15.180Z,9.70
2018-12-06T15:07:02.306Z,9.69
2018-12-06T15:09:49.834Z,9.68
2018-12-06T15:12:36.851Z,9.65
2018-12-06T15:15:23.999Z,9.62
2018-12-06T15:18:12.431Z,9.61
2018-12-06T15:21:03.716Z,10.33
2018-12-06T15:23:51.750Z,9.77
2018-12-06T15:26:39.384Z,10.48
2018-12-06T15:29:27.413Z,9.91
2018-12-06T15:32:16.489Z,9.78
2018-12-06T15:35:03.726Z,9.71
2018-12-06T15:37:55.732Z,9.69
2018-12-06T15:40:43.953Z,9.62
2018-12-06T15:43:32.230Z,9.62
2018-12-06T15:46:21.282Z,9.61
2018-12-06T15:49:09.590Z,9.58
2018-12-06T15:52:01.128Z,10.29
2018-12-06T15:54:48.804Z,9.77
2018-12-06T15:57:36.446Z,9.66
2018-12-06T16:00:24.521Z,10.38
2018-12-06T16:03:12.868Z,9.85
2018-12-06T16:06:02.237Z,9.72
2018-12-06T16:08:54.369Z,9.68
2018-12-06T16:11:48.091Z,9.63
2018-12-06T16:14:40.287Z,9.58
2018-12-06T16:17:28.650Z,9.54
2018-12-06T16:20:17.510Z,9.55
2018-12-06T16:26:14.043Z,9.43
2018-12-06T16:29:09.029Z,9.41
2018-12-06T16:35:03.716Z,9.37
2018-12-06T16:37:51.382Z,9.35
2018-12-06T16:40:38.988Z,10.12
2018-12-06T16:43:27.610Z,10.35
2018-12-06T16:46:16.808Z,9.78
2018-12-06T16:49:10.097Z,9.67
2018-12-06T16:51:53.463Z,9.63
2018-12-06T16:54:45.103Z,9.62
2018-12-06T16:57:33.107Z,9.62
2018-12-06T17:00:21.199Z,9.63
2018-12-06T17:03:22.592Z,9.61
2018-12-06T17:06:11.868Z,9.61
2018-12-06T17:08:58.533Z,9.62
2018-12-06T17:11:45.564Z,9.63
2018-12-06T17:14:33.244Z,9.64
2018-12-06T17:17:25.597Z,9.65
2018-12-06T17:20:12.921Z,9.68
2018-12-06T17:22:59.889Z,9.68
2018-12-06T17:25:50.120Z,9.62
2018-12-06T17:28:38.519Z,9.68
2018-12-06T17:31:27.992Z,9.67
2018-12-06T17:34:35.698Z,9.68
2018-12-06T17:37:25.159Z,9.65
2018-12-06T17:40:16.919Z,9.66
2018-12-06T17:43:15.819Z,9.65
2018-12-06T17:46:04.750Z,9.63
2018-12-06T17:52:13.095Z,9.61
2018-12-06T17:55:00.428Z,9.62
2018-12-06T17:57:52.652Z,9.60
2018-12-06T18:00:39.714Z,10.29
2018-12-06T18:03:26.664Z,10.47
2018-12-06T18:06:15.947Z,9.86
2018-12-06T18:09:05.975Z,9.66
2018-12-06T18:11:53.364Z,9.54
2018-12-06T18:14:40.177Z,9.43
2018-12-06T18:17:27.466Z,9.34
2018-12-06T18:20:14.330Z,9.27
2018-12-06T18:23:01.482Z,9.25
2018-12-06T18:25:50.779Z,9.19
2018-12-06T18:28:43.471Z,9.88
2018-12-06T18:31:31.756Z,9.41
2018-12-06T18:34:18.897Z,9.36
2018-12-06T18:37:08.353Z,10.11
2018-12-06T18:40:00.337Z,9.67
2018-12-06T18:42:57.892Z,9.64
2018-12-06T18:45:50.213Z,9.63
2018-12-06T18:48:39.921Z,9.66
2018-12-06T18:51:33.524Z,9.70
2018-12-06T18:54:22.993Z,9.74
2018-12-06T18:57:13.386Z,9.78
2018-12-06T19:00:02.311Z,9.79
2018-12-06T19:02:52.151Z,10.47
2018-12-06T19:05:39.375Z,10.00
2018-12-06T19:08:45.502Z,9.88
2018-12-06T19:11:41.326Z,9.79
2018-12-06T19:17:44.151Z,9.91
2018-12-06T19:20:34.589Z,10.50
2018-12-06T19:23:22.751Z,9.96
2018-12-06T19:26:11.674Z,9.77
2018-12-06T19:28:59.131Z,10.38
2018-12-06T19:31:46.655Z,9.79
2018-12-06T19:34:35.046Z,10.36
2018-12-06T19:37:24.678Z,9.75
2018-12-06T19:40:16.171Z,9.57
2018-12-06T19:43:04.011Z,9.43
2018-12-06T19:45:51.833Z,9.31
2018-12-06T19:48:40.892Z,9.94
2018-12-06T19:51:32.895Z,9.34
2018-12-06T19:54:20.531Z,9.17
2018-12-06T19:57:08.000Z,9.04
2018-12-06T19:59:55.403Z,8.94
2018-12-06T20:05:49.480Z,8.80
2018-12-06T20:08:36.552Z,8.74
2018-12-06T20:11:32.943Z,8.69
2018-12-06T20:14:23.122Z,8.64
2018-12-06T20:17:11.518Z,8.62
2018-12-06T20:20:23.376Z,8.59
2018-12-06T20:29:27.042Z,8.40
2018-12-06T20:32:15.407Z,8.34
2018-12-06T20:35:04.626Z,8.30
2018-12-06T20:37:53.614Z,8.26
2018-12-06T20:40:42.083Z,8.22
2018-12-06T20:43:31.646Z,8.23
2018-12-06T20:46:20.872Z,8.28
2018-12-06T20:49:08.506Z,8.32
2018-12-06T20:51:57.780Z,8.35
2018-12-06T20:57:55.084Z,8.44
2018-12-06T21:03:51.750Z,8.61
2018-12-06T21:06:45.605Z,8.67
2018-12-06T21:12:52.562Z,8.81
2018-12-06T21:25:03.795Z,9.42
2018-12-06T21:27:51.296Z,9.37
2018-12-06T21:30:38.971Z,9.36
2018-12-06T21:33:26.486Z,9.35
2018-12-06T21:36:17.120Z,9.37
2018-12-06T21:39:07.892Z,10.12
2018-12-06T21:41:58.189Z,10.37
2018-12-06T21:44:45.140Z,9.85
2018-12-06T21:47:44.546Z,9.75
2018-12-06T21:50:33.474Z,9.71
2018-12-06T21:56:28.141Z,9.94
2018-12-06T21:59:15.689Z,9.88
2018-12-06T22:05:31.396Z,9.81
2018-12-06T22:08:20.668Z,9.81
2018-12-06T22:11:07.542Z,9.80
2018-12-06T22:13:55.175Z,10.53
2018-12-06T22:16:42.316Z,10.08
2018-12-06T22:19:29.279Z,10.74
2018-12-06T22:22:16.173Z,10.23
2018-12-06T22:25:02.880Z,10.13
2018-12-06T22:27:50.048Z,10.10
2018-12-06T22:30:37.445Z,10.82
2018-12-06T22:33:24.479Z,10.32
2018-12-06T22:36:11.797Z,10.22
2018-12-06T22:39:00.611Z,10.16
2018-12-06T22:41:47.784Z,10.14
2018-12-06T22:44:35.062Z,10.14
2018-12-06T22:50:29.113Z,10.15
2018-12-06T22:53:16.745Z,10.88
2018-12-06T22:56:05.684Z,10.42
2018-12-06T22:58:52.819Z,10.33
2018-12-06T23:01:41.190Z,10.29
2018-12-06T23:04:28.541Z,10.21
2018-12-06T23:07:16.514Z,10.14
2018-12-06T23:16:19.666Z,10.21
2018-12-06T23:19:10.102Z,10.11
2018-12-06T23:25:05.898Z,10.00
2018-12-06T23:31:02.266Z,10.71
2018-12-06T23:33:50.408Z,10.21
2018-12-06T23:36:37.213Z,10.14
2018-12-06T23:42:31.437Z,10.15
2018-12-06T23:45:21.767Z,10.20
2018-12-06T23:48:09.171Z,10.24
2018-12-06T23:51:10.382Z,10.27
2018-12-06T23:53:57.626Z,10.29
2018-12-06T23:56:45.586Z,10.34
2018-12-06T23:59:34.106Z,10.40
